Station: Snowtown  

  Atmospheric Gas Attenuation - ITU Rec 676-11   ----------------- dB/100km -----------------
Date Time Temp RH % AH g/m3 Dew Point Wind Direction Speed kph Gust kph Barometer mB Rainfall Since 9am 24GHz 47GHz 76GHz 122GHz 134GHz 241GHz
04/09 20:30 15.7 81 10.84 12.5 17 26 1010.4 1.2 24.3 28.9 47.8 126.0 125.7 434.4
04/09 20:20 14.9 86 10.96 12.6 17 24 1013.1 1.2 24.6 29.5 49.0 129.0 129.0 445.7
04/09 20:10 15.2 86 11.16 12.9 19 24 1013.1 1.2 25.0 29.7 49.7 130.8 131.3 453.9
04/09 20:00 15.6 84 11.17 12.9 20 26 1010.3 1.2 25.0 29.5 49.3 129.9 130.5 451.0
04/09 19:50 16.2 80 11.03 12.7 22 28 1013.1 1 24.7 29.2 48.5 127.6 127.8 441.7
04/09 19:40 15.8 83 11.17 12.9 20 28 1013.1 1 25.0 29.6 49.3 129.9 130.5 450.8
04/09 19:30 16.2 78 10.76 12.4 20 24 1010.4 1 24.1 28.6 47.2 124.3 123.8 427.7
04/09 19:20 16.4 76 10.61 12.2 20 26 1013.1 1 23.7 28.4 46.6 122.6 121.7 420.4
04/09 19:10 16.5 75 10.53 12.1 20 24 1013.1 1 23.6 28.2 46.2 121.6 120.5 416.0
04/09 19:00 16.7 74 10.52 12 22 28 1010.5 1 23.5 28.1 45.9 120.8 119.8 413.6
04/09 18:50 16.7 73 10.37 11.8 22 26 1013.1 1 23.2 27.9 45.4 119.5 118.0 407.4
04/09 18:40 17 72 10.42 11.9 22 30 1013.1 1 23.3 27.9 45.5 119.6 118.2 408.2
04/09 18:30 16.4 82 11.44 13.3 20 28 1010.2 1 25.5 29.7 49.9 131.6 132.9 459.5
04/09 18:20 16.8 80 11.44 13.3 19 26 1013.1 1 25.5 29.7 49.8 131.3 132.5 458.2
04/09 18:10 16.7 78 11.08 12.8 22 28 1013.1 1 24.7 29.1 48.4 127.4 127.7 441.3
04/09 18:00 17 77 11.14 12.9 24 32 1009.2 1 24.9 28.9 48.3 127.1 127.6 441.1
04/09 17:50 18.6 64 10.19 11.7 28 35 1013.1 1 22.7 27.0 43.6 114.7 112.8 389.4
04/09 17:40 18.8 64 10.31 11.9 28 43 1013.1 1 23.0 27.2 44.0 115.7 114.0 393.8
04/09 17:30 17.4 77 11.41 13.3 26 33 1009.4 1 25.4 29.3 49.1 129.5 130.7 451.9
04/09 17:20 17.2 80 11.71 13.7 28 35 1013.1 1 26.1 30.0 50.7 133.7 135.6 469.0
04/09 17:10 17.4 79 11.71 13.7 24 35 1013.1 1 26.0 29.9 50.6 133.3 135.2 467.8
04/09 17:00 17.3 80 11.78 13.8 26 33 1009.5 1 26.2 29.9 50.8 133.8 136.0 470.5
04/09 16:50 17.6 79 11.85 13.9 28 33 1013.1 1 26.3 30.1 51.1 134.6 136.8 473.4
04/09 16:40 17.5 81 12.08 14.2 26 33 1013.1 1 26.8 30.5 52.1 137.4 140.3 485.3
04/09 16:30 17.5 82 12.22 14.4 22 32 1009.5 1 27.1 30.6 52.5 138.5 141.9 490.9
04/09 16:20 17.5 82 12.22 14.4 24 33 1013.1 1 27.1 30.8 52.7 139.0 142.2 492.2
04/09 16:10 17.3 84 12.37 14.6 24 30 1013.1 1 27.5 31.1 53.5 141.1 144.8 501.0
04/09 16:00 17.1 85 12.37 14.6 24 32 1009.5 1 27.5 31.0 53.5 141.0 144.7 500.9
04/09 15:50 17.5 83 12.37 14.6 24 32 1013.1 1 27.4 31.0 53.4 140.7 144.4 499.7
04/09 15:40 17.6 84 12.6 14.9 24 30 1013.1 1 27.9 31.4 54.3 143.2 147.5 510.5
04/09 15:30 17.8 85 12.9 15.2 26 35 1009.7 1 28.6 31.7 55.3 145.9 151.0 522.9
04/09 15:20 17.7 83 12.52 14.8 28 35 1013.1 1 27.8 31.2 53.9 142.1 146.1 505.8
04/09 15:10 18 83 12.75 15.1 28 39 1013.1 1 28.2 31.5 54.7 144.2 148.8 515.3
04/09 15:00 18.4 82 12.9 15.3 28 39 1009.8 1 28.5 31.5 54.9 144.8 149.8 518.8
04/09 14:50 18.1 83 12.82 15.2 30 41 1013.1 1 28.4 31.6 54.9 144.8 149.7 518.2
04/09 14:40 17.6 86 12.9 15.2 30 39 1013.1 1 28.6 31.9 55.6 146.7 151.8 525.6
04/09 14:30 17.9 81 12.37 14.6 30 41 1010.3 0.8 27.4 30.8 53.0 139.6 143.3 496.0
04/09 14:20 18.4 80 12.58 14.9 28 35 1013.1 0.8 27.8 31.1 53.7 141.5 145.7 504.2
04/09 14:10 18.5 81 12.81 15.2 28 35 1013.1 0.8 28.3 31.5 54.6 144.0 148.7 515.0
04/09 14:00 17.8 81 12.29 14.5 30 39 1011 0.8 27.3 30.7 52.7 139.0 142.4 493.0
04/09 13:50 17.5 82 12.22 14.4 26 37 1013.1 0.8 27.1 30.8 52.7 139.0 142.2 492.2
04/09 13:40 17.2 84 12.3 14.5 30 39 1013.1 0.8 27.3 31.0 53.3 140.5 144.0 498.1
04/09 13:30 17.8 83 12.6 14.9 28 35 1011.4 0.8 27.9 31.3 54.1 142.6 146.9 508.5
04/09 13:20 16.9 85 12.22 14.4 30 39 1013.1 0.8 27.2 31.0 53.1 140.1 143.4 496.1
04/09 13:10 17.1 83 12.08 14.2 32 43 1013.1 0.8 26.9 30.7 52.4 138.1 141.0 487.8
04/09 13:00 16.9 84 12.08 14.2 28 37 1012.3 0.8 26.9 30.7 52.5 138.3 141.3 488.8
04/09 12:50 16.3 84 11.65 13.6 28 35 1013.1 0.8 26.0 30.2 51.1 134.5 136.4 471.5
04/09 12:40 16.3 85 11.79 13.8 24 33 1013.1 0.8 26.3 30.5 51.7 136.2 138.3 478.5
04/09 12:30 15.8 89 11.98 14 22 32 1012.8 0.8 26.7 31.0 52.8 139.2 142.0 491.0
04/09 12:20 15.2 91 11.81 13.7 28 35 1013.1 0.8 26.4 30.9 52.5 138.3 140.7 486.4
04/09 12:10 14.8 90 11.4 13.2 26 33 1013.1 0.8 25.5 30.3 51.0 134.2 135.5 468.2
04/09 12:00 14.9 87 11.09 12.8 28 39 1014.1 0.6 24.9 29.8 49.6 130.6 131.0 452.5
04/09 11:50 15.7 83 11.1 12.8 26 35 1013.1 0.2 24.8 29.5 49.1 129.3 129.6 448.0
04/09 11:40 16 84 11.44 13.3 26 35 1013.1 0.2 25.5 30.0 50.4 132.6 133.9 463.0
04/09 11:30 15.3 86 11.23 13 26 35 1014.2 0.2 25.1 29.9 50.0 131.6 132.3 457.1
04/09 11:20 14.9 85 10.83 12.4 28 37 1013.1 0.2 24.3 29.3 48.4 127.5 127.2 439.3
04/09 11:10 14.9 86 10.96 12.6 24 32 1013.1 0.2 24.6 29.5 49.0 129.0 129.0 445.7
04/09 11:00 14 89 10.74 12.2 24 33 1015.1 0.2 24.2 29.5 48.7 128.2 127.6 440.7
04/09 10:50 13.5 88 10.29 11.6 22 33 1013.1 0.2 23.2 28.8 47.0 123.6 121.9 420.6
04/09 10:40 13.8 85 10.13 11.3 19 24 1013.1 0 22.9 28.4 46.1 121.3 119.2 411.1
04/09 10:30 14.3 89 10.93 12.5 19 24 1015.5 0 24.6 29.7 49.4 129.9 129.9 448.6
04/09 10:20 13.6 87 10.24 11.5 22 30 1013.1 0 23.1 28.7 46.7 122.9 121.0 417.6
04/09 10:10 13.8 85 10.13 11.3 24 35 1013.1 0 22.9 28.4 46.1 121.3 119.2 411.1
04/09 10:00 14.2 83 10.14 11.4 24 33 1016.5 0 22.9 28.5 46.1 121.2 119.0 410.6
04/09 09:50 14.2 86 10.5 11.9 22 30 1013.1 0 23.6 28.9 47.4 124.9 123.7 427.1
04/09 09:40 13.6 87 10.24 11.5 22 30 1013.1 0 23.1 28.7 46.7 122.9 121.0 417.6
04/09 09:30 13.3 89 10.28 11.5 17 26 1017.1 0 23.2 29.0 47.2 124.3 122.4 422.5
04/09 09:20 13 90 10.21 11.4 20 33 1013.1 0 23.1 28.8 46.9 123.5 121.5 419.3
04/09 09:10 12.7 89 9.91 10.9 28 39 1013.1 0 22.5 28.4 45.8 120.5 117.8 406.2
04/09 09:00 12.7 88 9.8 10.8 24 32 1018 0 22.2 28.4 45.6 119.8 116.7 402.3
04/09 08:50 12.5 88 9.68 10.6 26 35 1013.1 0.8 22.0 28.1 45.0 118.2 114.9 395.9
04/09 08:40 12.8 85 9.52 10.3 28 39 1013.1 0.4 21.6 27.7 44.1 115.9 112.2 386.6
04/09 08:30 12.5 86 9.46 10.2 24 37 1017.4 0 21.5 27.9 44.2 116.2 112.2 386.5
04/09 08:20 12.3 87 9.45 10.2 20 30 1013.1 0 21.5 27.8 44.1 115.9 112.0 385.7
04/09 08:10 12.2 89 9.61 10.4 20 24 1013.1 0 21.8 28.1 44.8 117.9 114.3 394.0
04/09 08:00 12.2 90 9.71 10.6 19 26 1016.6 0 22.0 28.4 45.4 119.4 116.1 400.0
04/09 07:50 11.8 91 9.58 10.4 19 26 1013.1 0 21.8 28.1 44.9 118.1 114.5 394.6
04/09 07:40 11.2 94 9.53 10.3 15 19 1013.1 0 21.7 28.2 45.1 118.5 114.7 395.2
04/09 07:30 10.6 95 9.27 9.8 15 19 1016.5 0 21.2 28.1 44.4 116.8 112.2 386.4
04/09 07:20 10.1 95 8.99 9.3 17 19 1013.1 0 20.6 27.7 43.4 113.9 108.7 374.0
04/09 07:10 9.6 96 8.8 9 13 17 1013.1 0 20.2 27.5 42.8 112.5 106.7 367.0
04/09 07:00 9.4 95 8.59 8.6 13 17 1016.3 0 19.8 27.3 42.2 110.7 104.3 358.5
04/09 06:50 9.4 95 8.59 8.6 11 13 1013.1 0 19.8 27.2 42.0 110.4 104.0 357.6
04/09 06:40 9.2 95 8.49 8.4 13 17 1013.1 0 19.6 27.1 41.7 109.5 102.9 353.6
04/09 06:30 8.9 94 8.24 8 17 20 1016.3 0 19.0 26.9 41.0 107.4 100.1 343.6
04/09 06:20 9.2 94 8.4 8.3 20 26 1013.1 0 19.4 26.9 41.3 108.5 101.6 349.2
04/09 06:10 9.1 95 8.43 8.3 17 22 1013.1 0 19.5 27.0 41.5 109.0 102.2 351.1
04/09 06:00 8.8 96 8.36 8.2 13 17 1017 0 19.3 27.1 41.6 109.0 101.9 350.2
04/09 05:50 8.6 96 8.25 8 11 13 1013.1 0 19.1 26.9 41.0 107.6 100.3 344.6
04/09 05:40 8.6 96 8.25 8 13 15 1013.1 0 19.1 26.9 41.0 107.6 100.3 344.6
04/09 05:30 8.8 96 8.36 8.2 13 17 1016.8 0 19.3 27.1 41.5 109.0 101.9 350.1
04/09 05:20 8.8 95 8.27 8 13 17 1013.1 0 19.1 26.8 41.0 107.6 100.4 344.6
04/09 05:10 9 95 8.38 8.2 15 20 1013.1 0 19.4 27.0 41.3 108.5 101.6 349.1
04/09 05:00 9.2 94 8.4 8.3 15 22 1017.3 0 19.4 27.1 41.5 109.0 102.0 350.4
04/09 04:50 9.8 95 8.82 9 19 24 1013.1 0 20.3 27.5 42.8 112.4 106.7 367.0
04/09 04:40 8.7 97 8.39 8.3 17 20 1013.1 0 19.4 27.1 41.6 109.1 102.2 351.0
04/09 04:30 8 98 8.11 7.7 15 17 1017.7 0 18.8 27.0 40.9 107.4 99.5 341.6
04/09 04:20 7.4 98 7.8 7.1 13 15 1013.1 0 18.2 26.4 39.7 104.2 95.6 327.7
04/09 04:10 7 98 7.6 6.7 11 15 1013.1 0 17.8 26.2 39.1 102.4 93.3 319.6
04/09 04:00 6.7 98 7.45 6.4 11 15 1017.8 0 17.4 26.2 38.8 101.6 91.9 314.7

Last Refresh: 04-Sep-2026 20:43:12

Bureau of Meteorology